Minneapolis, MN

6:01 AM CDT on August 03, 2015 (GMT -0500)
Lyn-Lake | | Change Station
CLOSE
Current Station
Personal Weather Station
Location: Minneapolis, MN
Elevation: 873 ft
Nearby Weather Stations

Elev 873 ft 44.94 °N, 93.29 °W | Updated 8 seconds ago

Clear
Clear
62.1 °F
Feels Like 62.1 °F
N
0.0
Wind Variable Wind from SW
Gusts 0.0 mph

Today
High -- | Low -- °F
--% Chance of Precip.
Yesterday
High -- | Low -- °F
Precip. -- in
6:00 AM 8:37 PM
Waning Gibbous, 87% visible
Pressure 29.87 in
Visibility 10.0 miles
Clouds Clear
Dew Point 54 °F
Humidity 76%
Rainfall 0.00 in
Snow Depth Not available.
UV 0 out of 12
Pollen 8.00 out of 12
Air Quality Not available.
Flu Activity Not available.
METAR KMSP 031053Z 30005KT 10SM CLR 16/12 A2988 RMK AO2 SLP113 T01560117 $

More Conditions Fewer Conditions

Pressure 29.87 in
Visibility 10.0 miles
Clouds Clear
Dew Point 54 °F
Humidity 76%
Rainfall 0.00 in
Snow Depth Not available.
UV 0 out of 12
Pollen 8.00 out of 12
Air Quality Not available.
Flu Activity Not available.
METAR KMSP 031053Z 30005KT 10SM CLR 16/12 A2988 RMK AO2 SLP113 T01560117 $

More Conditions Fewer Conditions

10-Day Weather Forecast

×

Almanac

Astronomy

Aug. 03, 2015 Rise Set
Actual Time
Civil Twilight
Nautical Twilight
Astronomical Twilight
Moon
Length of Visible Light
Length of Day
Tomorrow will be .
, % of the Moon is Illuminated

Today's Extremes

State Highs State Lows

Community

WunderPhotos

Upload Photos

1,843,610 photos uploaded!

WunderBlogs® & News

Nearby

Air Quality

  Air Quality AQ Index Pollutant
Not available.

Snow Depth

Station Depth Elevation

Earthquake Activity

City Distance Mag. Time & Date
Minimum magnitude displayed is 2.5.

Coastal Water Temperatures

Place Temperature

Stations

Nearby Weather Stations

Station Location Temp. Windchill Dew Point Humidity Wind Precip. Elev Updated Type